McKinney, Texas
Current Conditions -  °F | °C
As of 9:53 AM on Wednesday 26 Nov 2014 (Local Time) from KTKI Reporting Station
Clear Clear  
Wind Chill: 53°   Ceiling: Unl
Heat Index: 53°   Visibility: 10mi
Dew Point: 29°   Wind: 14mph
Humidity: 40%   Direction: 320°NW
Pressure: 30.14"   Gusts: NA
Location:  33.2°N, 96.61°W
Report Text: KTKI 261553Z 32012KT 10SM CLR 12/M02 A3014 RMK AO2 SLP214 T01171017
Loading
Personal Weather Stations






























Interactive Weather Map New forecast layout! Learn more

10-Day Weather Forecast

Advertisements
Track Severe Weather on mobile